sensor_id;sensor_type;location;lat;lon;timestamp;P1;durP1;ratioP1;P2;durP2;ratioP2
39656;SDS011;25337;51.478;7.510;2024-02-14T00:01:05;9.52;;;3.00;;
39656;SDS011;25337;51.478;7.510;2024-02-14T00:03:34;7.93;;;3.17;;
39656;SDS011;25337;51.478;7.510;2024-02-14T00:05:59;9.20;;;3.17;;
39656;SDS011;25337;51.478;7.510;2024-02-14T00:08:25;9.27;;;2.80;;
39656;SDS011;25337;51.478;7.510;2024-02-14T00:10:51;7.20;;;2.85;;
39656;SDS011;25337;51.478;7.510;2024-02-14T00:13:16;8.38;;;2.60;;
39656;SDS011;25337;51.478;7.510;2024-02-14T00:15:45;8.57;;;3.15;;
39656;SDS011;25337;51.478;7.510;2024-02-14T00:18:11;11.40;;;3.53;;
39656;SDS011;25337;51.478;7.510;2024-02-14T00:20:37;8.70;;;3.38;;
39656;SDS011;25337;51.478;7.510;2024-02-14T00:23:04;11.32;;;3.55;;
39656;SDS011;25337;51.478;7.510;2024-02-14T00:25:30;6.93;;;2.72;;
39656;SDS011;25337;51.478;7.510;2024-02-14T00:27:55;8.27;;;2.90;;
39656;SDS011;25337;51.478;7.510;2024-02-14T00:30:21;6.88;;;2.72;;
39656;SDS011;25337;51.478;7.510;2024-02-14T00:32:48;8.93;;;2.67;;
39656;SDS011;25337;51.478;7.510;2024-02-14T00:35:13;7.18;;;2.72;;
39656;SDS011;25337;51.478;7.510;2024-02-14T00:37:39;9.40;;;2.65;;
39656;SDS011;25337;51.478;7.510;2024-02-14T00:40:05;9.00;;;2.55;;
39656;SDS011;25337;51.478;7.510;2024-02-14T00:42:31;6.70;;;2.33;;
39656;SDS011;25337;51.478;7.510;2024-02-14T00:44:56;6.93;;;2.30;;
39656;SDS011;25337;51.478;7.510;2024-02-14T00:47:22;6.93;;;2.20;;
39656;SDS011;25337;51.478;7.510;2024-02-14T00:49:48;8.48;;;2.58;;
39656;SDS011;25337;51.478;7.510;2024-02-14T00:52:13;8.98;;;3.20;;
39656;SDS011;25337;51.478;7.510;2024-02-14T00:54:39;6.10;;;2.13;;
39656;SDS011;25337;51.478;7.510;2024-02-14T00:57:05;5.80;;;2.33;;
39656;SDS011;25337;51.478;7.510;2024-02-14T00:59:30;9.10;;;2.58;;
39656;SDS011;25337;51.478;7.510;2024-02-14T01:01:56;6.15;;;2.05;;
39656;SDS011;25337;51.478;7.510;2024-02-14T01:04:21;9.43;;;2.92;;
39656;SDS011;25337;51.478;7.510;2024-02-14T01:06:47;6.55;;;2.15;;
39656;SDS011;25337;51.478;7.510;2024-02-14T01:09:14;6.57;;;2.10;;
39656;SDS011;25337;51.478;7.510;2024-02-14T01:11:40;7.32;;;2.30;;
39656;SDS011;25337;51.478;7.510;2024-02-14T01:14:05;12.05;;;2.72;;
39656;SDS011;25337;51.478;7.510;2024-02-14T01:16:31;6.68;;;2.30;;
39656;SDS011;25337;51.478;7.510;2024-02-14T01:18:57;6.13;;;2.10;;
39656;SDS011;25337;51.478;7.510;2024-02-14T01:21:22;6.88;;;2.38;;
39656;SDS011;25337;51.478;7.510;2024-02-14T01:23:48;6.80;;;2.28;;
39656;SDS011;25337;51.478;7.510;2024-02-14T01:26:13;6.30;;;2.20;;
39656;SDS011;25337;51.478;7.510;2024-02-14T01:28:39;8.20;;;2.08;;
39656;SDS011;25337;51.478;7.510;2024-02-14T01:31:05;5.55;;;1.92;;
39656;SDS011;25337;51.478;7.510;2024-02-14T01:33:30;7.65;;;2.45;;
39656;SDS011;25337;51.478;7.510;2024-02-14T01:35:56;7.72;;;2.47;;
39656;SDS011;25337;51.478;7.510;2024-02-14T01:38:22;5.70;;;1.90;;
39656;SDS011;25337;51.478;7.510;2024-02-14T01:40:48;6.88;;;2.33;;
39656;SDS011;25337;51.478;7.510;2024-02-14T01:43:14;6.90;;;2.38;;
39656;SDS011;25337;51.478;7.510;2024-02-14T01:45:40;8.07;;;2.20;;
39656;SDS011;25337;51.478;7.510;2024-02-14T01:48:06;9.95;;;2.15;;
39656;SDS011;25337;51.478;7.510;2024-02-14T01:50:33;8.27;;;1.83;;
39656;SDS011;25337;51.478;7.510;2024-02-14T01:53:00;5.72;;;2.10;;
39656;SDS011;25337;51.478;7.510;2024-02-14T01:55:27;7.18;;;2.15;;
39656;SDS011;25337;51.478;7.510;2024-02-14T01:57:53;8.68;;;2.50;;
39656;SDS011;25337;51.478;7.510;2024-02-14T02:00:19;5.90;;;2.08;;
39656;SDS011;25337;51.478;7.510;2024-02-14T02:02:45;8.60;;;2.50;;
39656;SDS011;25337;51.478;7.510;2024-02-14T02:05:14;6.70;;;2.03;;
39656;SDS011;25337;51.478;7.510;2024-02-14T02:07:41;6.15;;;1.80;;
39656;SDS011;25337;51.478;7.510;2024-02-14T02:10:08;5.90;;;2.25;;
39656;SDS011;25337;51.478;7.510;2024-02-14T02:12:36;6.95;;;2.50;;
39656;SDS011;25337;51.478;7.510;2024-02-14T02:15:03;6.03;;;2.15;;
39656;SDS011;25337;51.478;7.510;2024-02-14T02:17:31;6.38;;;2.15;;
39656;SDS011;25337;51.478;7.510;2024-02-14T02:19:59;5.47;;;2.33;;
39656;SDS011;25337;51.478;7.510;2024-02-14T02:22:25;7.15;;;2.17;;
39656;SDS011;25337;51.478;7.510;2024-02-14T02:24:51;7.13;;;2.55;;
39656;SDS011;25337;51.478;7.510;2024-02-14T02:27:18;5.55;;;2.10;;
39656;SDS011;25337;51.478;7.510;2024-02-14T02:29:43;6.50;;;2.00;;
39656;SDS011;25337;51.478;7.510;2024-02-14T02:32:09;6.72;;;2.35;;
39656;SDS011;25337;51.478;7.510;2024-02-14T02:34:34;6.10;;;2.30;;
39656;SDS011;25337;51.478;7.510;2024-02-14T02:37:03;6.32;;;2.20;;
39656;SDS011;25337;51.478;7.510;2024-02-14T02:39:32;6.25;;;2.38;;
39656;SDS011;25337;51.478;7.510;2024-02-14T02:41:58;7.35;;;2.10;;
39656;SDS011;25337;51.478;7.510;2024-02-14T02:44:24;7.55;;;2.38;;
39656;SDS011;25337;51.478;7.510;2024-02-14T02:46:50;6.00;;;2.33;;
39656;SDS011;25337;51.478;7.510;2024-02-14T02:49:16;7.32;;;2.20;;
39656;SDS011;25337;51.478;7.510;2024-02-14T02:51:41;6.90;;;2.20;;
39656;SDS011;25337;51.478;7.510;2024-02-14T02:54:07;5.35;;;1.98;;
39656;SDS011;25337;51.478;7.510;2024-02-14T02:56:33;10.88;;;2.67;;
39656;SDS011;25337;51.478;7.510;2024-02-14T02:58:59;5.40;;;1.70;;
39656;SDS011;25337;51.478;7.510;2024-02-14T03:01:28;6.60;;;2.25;;
39656;SDS011;25337;51.478;7.510;2024-02-14T03:03:59;6.35;;;2.50;;
39656;SDS011;25337;51.478;7.510;2024-02-14T03:06:25;7.15;;;2.13;;
39656;SDS011;25337;51.478;7.510;2024-02-14T03:08:51;10.55;;;2.45;;
39656;SDS011;25337;51.478;7.510;2024-02-14T03:11:18;6.47;;;1.95;;
39656;SDS011;25337;51.478;7.510;2024-02-14T03:13:45;5.65;;;2.13;;
39656;SDS011;25337;51.478;7.510;2024-02-14T03:16:13;6.30;;;2.60;;
39656;SDS011;25337;51.478;7.510;2024-02-14T03:18:40;5.35;;;1.85;;
39656;SDS011;25337;51.478;7.510;2024-02-14T03:21:06;5.82;;;2.28;;
39656;SDS011;25337;51.478;7.510;2024-02-14T03:23:31;7.85;;;2.45;;
39656;SDS011;25337;51.478;7.510;2024-02-14T03:25:57;5.60;;;1.95;;
39656;SDS011;25337;51.478;7.510;2024-02-14T03:28:23;8.23;;;2.30;;
39656;SDS011;25337;51.478;7.510;2024-02-14T03:30:48;7.25;;;2.17;;
39656;SDS011;25337;51.478;7.510;2024-02-14T03:33:14;6.70;;;2.08;;
39656;SDS011;25337;51.478;7.510;2024-02-14T03:35:40;5.93;;;2.10;;
39656;SDS011;25337;51.478;7.510;2024-02-14T03:38:06;5.70;;;1.90;;
39656;SDS011;25337;51.478;7.510;2024-02-14T03:40:33;7.63;;;2.63;;
39656;SDS011;25337;51.478;7.510;2024-02-14T03:43:00;6.97;;;2.67;;
39656;SDS011;25337;51.478;7.510;2024-02-14T03:45:27;5.97;;;2.03;;
39656;SDS011;25337;51.478;7.510;2024-02-14T03:47:54;6.38;;;2.63;;
39656;SDS011;25337;51.478;7.510;2024-02-14T03:50:21;6.88;;;2.70;;
39656;SDS011;25337;51.478;7.510;2024-02-14T03:52:47;5.60;;;2.10;;
39656;SDS011;25337;51.478;7.510;2024-02-14T03:55:14;8.57;;;2.88;;
39656;SDS011;25337;51.478;7.510;2024-02-14T03:57:42;6.13;;;2.35;;
39656;SDS011;25337;51.478;7.510;2024-02-14T04:00:10;7.53;;;2.90;;
39656;SDS011;25337;51.478;7.510;2024-02-14T04:02:36;7.95;;;2.80;;
39656;SDS011;25337;51.478;7.510;2024-02-14T04:05:02;6.70;;;2.63;;
39656;SDS011;25337;51.478;7.510;2024-02-14T04:07:28;6.45;;;2.40;;
39656;SDS011;25337;51.478;7.510;2024-02-14T04:09:54;8.43;;;2.60;;
39656;SDS011;25337;51.478;7.510;2024-02-14T04:12:20;8.35;;;2.60;;
39656;SDS011;25337;51.478;7.510;2024-02-14T04:14:46;6.50;;;2.45;;
39656;SDS011;25337;51.478;7.510;2024-02-14T04:17:11;6.60;;;2.47;;
39656;SDS011;25337;51.478;7.510;2024-02-14T04:19:37;7.10;;;2.65;;
39656;SDS011;25337;51.478;7.510;2024-02-14T04:22:03;4.88;;;2.00;;
39656;SDS011;25337;51.478;7.510;2024-02-14T04:24:29;7.53;;;3.00;;
39656;SDS011;25337;51.478;7.510;2024-02-14T04:26:54;6.22;;;2.60;;
39656;SDS011;25337;51.478;7.510;2024-02-14T04:29:21;7.07;;;2.35;;
39656;SDS011;25337;51.478;7.510;2024-02-14T04:31:48;7.68;;;2.45;;
39656;SDS011;25337;51.478;7.510;2024-02-14T04:34:14;6.80;;;2.40;;
39656;SDS011;25337;51.478;7.510;2024-02-14T04:36:39;6.05;;;2.40;;
39656;SDS011;25337;51.478;7.510;2024-02-14T04:39:05;6.47;;;2.42;;
39656;SDS011;25337;51.478;7.510;2024-02-14T04:41:32;6.63;;;2.22;;
39656;SDS011;25337;51.478;7.510;2024-02-14T04:44:02;6.45;;;2.45;;
39656;SDS011;25337;51.478;7.510;2024-02-14T04:46:34;5.93;;;2.40;;
39656;SDS011;25337;51.478;7.510;2024-02-14T04:49:01;6.75;;;2.83;;
39656;SDS011;25337;51.478;7.510;2024-02-14T04:51:30;7.35;;;2.90;;
39656;SDS011;25337;51.478;7.510;2024-02-14T04:53:56;7.93;;;3.28;;
39656;SDS011;25337;51.478;7.510;2024-02-14T04:56:25;7.67;;;3.03;;
39656;SDS011;25337;51.478;7.510;2024-02-14T04:58:52;9.18;;;2.85;;
39656;SDS011;25337;51.478;7.510;2024-02-14T05:01:19;8.57;;;3.72;;
39656;SDS011;25337;51.478;7.510;2024-02-14T05:03:45;9.25;;;4.10;;
39656;SDS011;25337;51.478;7.510;2024-02-14T05:06:11;8.40;;;3.58;;
39656;SDS011;25337;51.478;7.510;2024-02-14T05:08:36;6.50;;;2.67;;
39656;SDS011;25337;51.478;7.510;2024-02-14T05:11:02;10.40;;;4.55;;
39656;SDS011;25337;51.478;7.510;2024-02-14T05:13:28;9.07;;;3.80;;
39656;SDS011;25337;51.478;7.510;2024-02-14T05:15:55;11.52;;;3.97;;
39656;SDS011;25337;51.478;7.510;2024-02-14T05:18:21;10.60;;;3.83;;
39656;SDS011;25337;51.478;7.510;2024-02-14T05:20:47;11.18;;;4.93;;
39656;SDS011;25337;51.478;7.510;2024-02-14T05:23:12;9.88;;;4.05;;
39656;SDS011;25337;51.478;7.510;2024-02-14T05:25:38;10.10;;;4.32;;
39656;SDS011;25337;51.478;7.510;2024-02-14T05:28:04;11.43;;;4.18;;
39656;SDS011;25337;51.478;7.510;2024-02-14T05:30:30;7.68;;;3.20;;
39656;SDS011;25337;51.478;7.510;2024-02-14T05:32:56;8.70;;;3.88;;
39656;SDS011;25337;51.478;7.510;2024-02-14T05:35:22;18.90;;;4.50;;
39656;SDS011;25337;51.478;7.510;2024-02-14T05:37:48;10.02;;;4.38;;
39656;SDS011;25337;51.478;7.510;2024-02-14T05:40:15;11.32;;;4.70;;
39656;SDS011;25337;51.478;7.510;2024-02-14T05:42:40;11.50;;;3.90;;
39656;SDS011;25337;51.478;7.510;2024-02-14T05:45:06;9.65;;;3.70;;
39656;SDS011;25337;51.478;7.510;2024-02-14T05:47:35;9.73;;;4.20;;
39656;SDS011;25337;51.478;7.510;2024-02-14T05:50:00;10.27;;;3.90;;
39656;SDS011;25337;51.478;7.510;2024-02-14T05:52:26;9.88;;;3.55;;
39656;SDS011;25337;51.478;7.510;2024-02-14T05:54:52;9.13;;;4.22;;
39656;SDS011;25337;51.478;7.510;2024-02-14T05:57:19;8.40;;;3.40;;
39656;SDS011;25337;51.478;7.510;2024-02-14T05:59:44;9.70;;;4.35;;
39656;SDS011;25337;51.478;7.510;2024-02-14T06:02:10;11.43;;;4.47;;
39656;SDS011;25337;51.478;7.510;2024-02-14T06:04:35;9.18;;;3.42;;
39656;SDS011;25337;51.478;7.510;2024-02-14T06:07:01;10.27;;;4.35;;
39656;SDS011;25337;51.478;7.510;2024-02-14T06:09:27;11.45;;;4.60;;
39656;SDS011;25337;51.478;7.510;2024-02-14T06:11:54;10.07;;;3.90;;
39656;SDS011;25337;51.478;7.510;2024-02-14T06:14:19;13.45;;;5.15;;
39656;SDS011;25337;51.478;7.510;2024-02-14T06:16:45;9.07;;;4.05;;
39656;SDS011;25337;51.478;7.510;2024-02-14T06:19:11;11.38;;;4.53;;
39656;SDS011;25337;51.478;7.510;2024-02-14T06:21:38;10.65;;;5.07;;
39656;SDS011;25337;51.478;7.510;2024-02-14T06:24:04;11.30;;;4.00;;
39656;SDS011;25337;51.478;7.510;2024-02-14T06:26:30;9.68;;;4.50;;
39656;SDS011;25337;51.478;7.510;2024-02-14T06:28:58;10.57;;;4.75;;
39656;SDS011;25337;51.478;7.510;2024-02-14T06:31:24;10.77;;;4.88;;
39656;SDS011;25337;51.478;7.510;2024-02-14T06:33:50;15.68;;;5.25;;
39656;SDS011;25337;51.478;7.510;2024-02-14T06:36:15;10.30;;;4.70;;
39656;SDS011;25337;51.478;7.510;2024-02-14T06:38:41;9.27;;;4.03;;
39656;SDS011;25337;51.478;7.510;2024-02-14T06:41:07;13.02;;;4.63;;
39656;SDS011;25337;51.478;7.510;2024-02-14T06:43:32;10.77;;;4.35;;
39656;SDS011;25337;51.478;7.510;2024-02-14T06:45:58;8.65;;;3.60;;
39656;SDS011;25337;51.478;7.510;2024-02-14T06:48:24;11.80;;;3.83;;
39656;SDS011;25337;51.478;7.510;2024-02-14T06:50:52;11.40;;;4.32;;
39656;SDS011;25337;51.478;7.510;2024-02-14T06:53:18;11.23;;;4.15;;
39656;SDS011;25337;51.478;7.510;2024-02-14T06:55:43;10.88;;;4.63;;
39656;SDS011;25337;51.478;7.510;2024-02-14T06:58:09;9.70;;;4.30;;
39656;SDS011;25337;51.478;7.510;2024-02-14T07:00:35;11.20;;;5.13;;
39656;SDS011;25337;51.478;7.510;2024-02-14T07:03:00;10.40;;;4.88;;
39656;SDS011;25337;51.478;7.510;2024-02-14T07:05:26;9.95;;;4.53;;
39656;SDS011;25337;51.478;7.510;2024-02-14T07:07:54;13.02;;;4.47;;
39656;SDS011;25337;51.478;7.510;2024-02-14T07:10:20;11.65;;;4.88;;
39656;SDS011;25337;51.478;7.510;2024-02-14T07:12:45;11.75;;;5.38;;
39656;SDS011;25337;51.478;7.510;2024-02-14T07:15:11;10.68;;;5.20;;
39656;SDS011;25337;51.478;7.510;2024-02-14T07:17:36;11.63;;;4.80;;
39656;SDS011;25337;51.478;7.510;2024-02-14T07:20:03;11.23;;;5.43;;
39656;SDS011;25337;51.478;7.510;2024-02-14T07:22:30;11.07;;;5.45;;
39656;SDS011;25337;51.478;7.510;2024-02-14T07:24:56;12.20;;;4.93;;
39656;SDS011;25337;51.478;7.510;2024-02-14T07:27:21;12.45;;;5.57;;
39656;SDS011;25337;51.478;7.510;2024-02-14T07:29:48;11.40;;;5.32;;
39656;SDS011;25337;51.478;7.510;2024-02-14T07:32:14;13.60;;;5.70;;
39656;SDS011;25337;51.478;7.510;2024-02-14T07:34:40;12.85;;;6.20;;
39656;SDS011;25337;51.478;7.510;2024-02-14T07:37:06;11.85;;;5.93;;
39656;SDS011;25337;51.478;7.510;2024-02-14T07:39:31;14.52;;;6.93;;
39656;SDS011;25337;51.478;7.510;2024-02-14T07:41:59;13.98;;;6.22;;
39656;SDS011;25337;51.478;7.510;2024-02-14T07:44:28;15.90;;;7.82;;
39656;SDS011;25337;51.478;7.510;2024-02-14T07:46:53;13.77;;;6.10;;
39656;SDS011;25337;51.478;7.510;2024-02-14T07:49:19;16.23;;;7.45;;
39656;SDS011;25337;51.478;7.510;2024-02-14T07:51:45;17.75;;;7.45;;
39656;SDS011;25337;51.478;7.510;2024-02-14T07:54:11;15.38;;;7.45;;
39656;SDS011;25337;51.478;7.510;2024-02-14T07:56:37;20.65;;;7.55;;
39656;SDS011;25337;51.478;7.510;2024-02-14T07:59:02;15.68;;;7.90;;
39656;SDS011;25337;51.478;7.510;2024-02-14T08:01:30;19.25;;;6.93;;
39656;SDS011;25337;51.478;7.510;2024-02-14T08:03:56;19.60;;;7.47;;
39656;SDS011;25337;51.478;7.510;2024-02-14T08:06:21;13.50;;;6.60;;
39656;SDS011;25337;51.478;7.510;2024-02-14T08:08:47;17.00;;;7.90;;
39656;SDS011;25337;51.478;7.510;2024-02-14T08:11:19;11.23;;;5.90;;
39656;SDS011;25337;51.478;7.510;2024-02-14T08:13:45;16.92;;;8.05;;
39656;SDS011;25337;51.478;7.510;2024-02-14T08:16:11;18.42;;;9.00;;
39656;SDS011;25337;51.478;7.510;2024-02-14T08:18:37;13.80;;;6.22;;
39656;SDS011;25337;51.478;7.510;2024-02-14T08:21:04;14.90;;;7.38;;
39656;SDS011;25337;51.478;7.510;2024-02-14T08:23:31;12.80;;;6.07;;
39656;SDS011;25337;51.478;7.510;2024-02-14T08:25:57;15.63;;;6.57;;
39656;SDS011;25337;51.478;7.510;2024-02-14T08:28:22;12.80;;;6.13;;
39656;SDS011;25337;51.478;7.510;2024-02-14T08:30:48;12.48;;;5.50;;
39656;SDS011;25337;51.478;7.510;2024-02-14T08:33:14;13.95;;;5.80;;
39656;SDS011;25337;51.478;7.510;2024-02-14T08:35:39;12.65;;;5.90;;
39656;SDS011;25337;51.478;7.510;2024-02-14T08:38:05;11.52;;;5.38;;
39656;SDS011;25337;51.478;7.510;2024-02-14T08:40:31;12.75;;;5.82;;
39656;SDS011;25337;51.478;7.510;2024-02-14T08:42:57;12.68;;;5.70;;
39656;SDS011;25337;51.478;7.510;2024-02-14T08:45:24;11.60;;;5.72;;
39656;SDS011;25337;51.478;7.510;2024-02-14T08:47:50;11.15;;;5.30;;
39656;SDS011;25337;51.478;7.510;2024-02-14T08:50:16;12.30;;;5.57;;
39656;SDS011;25337;51.478;7.510;2024-02-14T08:52:42;8.88;;;4.22;;
39656;SDS011;25337;51.478;7.510;2024-02-14T08:55:07;12.35;;;5.25;;
39656;SDS011;25337;51.478;7.510;2024-02-14T08:57:39;12.57;;;5.30;;
39656;SDS011;25337;51.478;7.510;2024-02-14T09:00:06;12.13;;;5.20;;
39656;SDS011;25337;51.478;7.510;2024-02-14T09:02:32;8.48;;;3.75;;
39656;SDS011;25337;51.478;7.510;2024-02-14T09:05:00;9.88;;;4.55;;
39656;SDS011;25337;51.478;7.510;2024-02-14T09:07:26;11.05;;;4.80;;
39656;SDS011;25337;51.478;7.510;2024-02-14T09:09:52;10.55;;;4.57;;
39656;SDS011;25337;51.478;7.510;2024-02-14T09:12:17;12.60;;;5.20;;
39656;SDS011;25337;51.478;7.510;2024-02-14T09:14:43;11.13;;;4.80;;
39656;SDS011;25337;51.478;7.510;2024-02-14T09:17:08;10.40;;;5.05;;
39656;SDS011;25337;51.478;7.510;2024-02-14T09:19:35;9.90;;;4.40;;
39656;SDS011;25337;51.478;7.510;2024-02-14T09:22:01;10.45;;;4.30;;
39656;SDS011;25337;51.478;7.510;2024-02-14T09:24:31;13.20;;;4.87;;
39656;SDS011;25337;51.478;7.510;2024-02-14T09:26:57;10.10;;;4.95;;
39656;SDS011;25337;51.478;7.510;2024-02-14T09:29:22;16.60;;;4.80;;
39656;SDS011;25337;51.478;7.510;2024-02-14T09:31:49;10.98;;;4.95;;
39656;SDS011;25337;51.478;7.510;2024-02-14T09:34:16;12.10;;;5.45;;
39656;SDS011;25337;51.478;7.510;2024-02-14T09:36:44;11.52;;;5.32;;
39656;SDS011;25337;51.478;7.510;2024-02-14T09:39:10;10.65;;;4.40;;
39656;SDS011;25337;51.478;7.510;2024-02-14T09:41:40;11.43;;;4.82;;
39656;SDS011;25337;51.478;7.510;2024-02-14T09:44:08;10.43;;;3.85;;
39656;SDS011;25337;51.478;7.510;2024-02-14T09:46:37;11.65;;;4.00;;
39656;SDS011;25337;51.478;7.510;2024-02-14T09:49:03;8.68;;;3.72;;
39656;SDS011;25337;51.478;7.510;2024-02-14T09:51:31;12.70;;;3.13;;
39656;SDS011;25337;51.478;7.510;2024-02-14T09:53:57;10.23;;;3.47;;
39656;SDS011;25337;51.478;7.510;2024-02-14T09:56:25;6.18;;;2.40;;
39656;SDS011;25337;51.478;7.510;2024-02-14T09:58:52;7.15;;;3.38;;
39656;SDS011;25337;51.478;7.510;2024-02-14T10:01:22;8.82;;;2.83;;
39656;SDS011;25337;51.478;7.510;2024-02-14T10:03:54;8.95;;;3.42;;
39656;SDS011;25337;51.478;7.510;2024-02-14T10:06:20;7.57;;;3.53;;
39656;SDS011;25337;51.478;7.510;2024-02-14T10:08:46;8.18;;;3.33;;
39656;SDS011;25337;51.478;7.510;2024-02-14T10:11:13;7.35;;;3.03;;
39656;SDS011;25337;51.478;7.510;2024-02-14T10:13:46;8.38;;;3.30;;
39656;SDS011;25337;51.478;7.510;2024-02-14T10:16:13;6.13;;;2.23;;
39656;SDS011;25337;51.478;7.510;2024-02-14T10:18:44;7.30;;;3.00;;
39656;SDS011;25337;51.478;7.510;2024-02-14T10:21:14;9.75;;;3.20;;
39656;SDS011;25337;51.478;7.510;2024-02-14T10:23:42;7.03;;;2.83;;
39656;SDS011;25337;51.478;7.510;2024-02-14T10:26:08;7.07;;;2.78;;
39656;SDS011;25337;51.478;7.510;2024-02-14T10:28:34;7.65;;;3.00;;
39656;SDS011;25337;51.478;7.510;2024-02-14T10:31:00;8.25;;;2.85;;
39656;SDS011;25337;51.478;7.510;2024-02-14T10:33:27;7.13;;;2.88;;
39656;SDS011;25337;51.478;7.510;2024-02-14T10:35:54;6.18;;;2.55;;
39656;SDS011;25337;51.478;7.510;2024-02-14T10:38:22;7.28;;;3.13;;
39656;SDS011;25337;51.478;7.510;2024-02-14T10:40:49;21.35;;;3.25;;
39656;SDS011;25337;51.478;7.510;2024-02-14T10:43:15;7.72;;;3.15;;
39656;SDS011;25337;51.478;7.510;2024-02-14T10:45:41;10.43;;;3.15;;
39656;SDS011;25337;51.478;7.510;2024-02-14T10:48:11;7.38;;;2.95;;
39656;SDS011;25337;51.478;7.510;2024-02-14T10:50:37;9.48;;;3.10;;
39656;SDS011;25337;51.478;7.510;2024-02-14T10:53:06;7.63;;;2.83;;
39656;SDS011;25337;51.478;7.510;2024-02-14T10:55:38;6.68;;;2.65;;
39656;SDS011;25337;51.478;7.510;2024-02-14T10:58:09;9.68;;;3.22;;
39656;SDS011;25337;51.478;7.510;2024-02-14T11:00:36;10.75;;;3.08;;
39656;SDS011;25337;51.478;7.510;2024-02-14T11:03:02;8.27;;;2.92;;
39656;SDS011;25337;51.478;7.510;2024-02-14T11:05:29;8.13;;;2.58;;
39656;SDS011;25337;51.478;7.510;2024-02-14T11:07:54;8.63;;;2.58;;
39656;SDS011;25337;51.478;7.510;2024-02-14T11:10:21;7.50;;;2.63;;
39656;SDS011;25337;51.478;7.510;2024-02-14T11:12:48;6.78;;;2.80;;
39656;SDS011;25337;51.478;7.510;2024-02-14T11:15:17;6.82;;;2.80;;
39656;SDS011;25337;51.478;7.510;2024-02-14T11:17:45;5.88;;;2.25;;
39656;SDS011;25337;51.478;7.510;2024-02-14T11:20:13;7.20;;;2.22;;
39656;SDS011;25337;51.478;7.510;2024-02-14T11:22:52;5.90;;;2.30;;
39656;SDS011;25337;51.478;7.510;2024-02-14T11:25:22;8.15;;;2.72;;
39656;SDS011;25337;51.478;7.510;2024-02-14T11:27:49;6.65;;;2.13;;
39656;SDS011;25337;51.478;7.510;2024-02-14T11:30:15;5.97;;;2.28;;
39656;SDS011;25337;51.478;7.510;2024-02-14T11:32:53;6.13;;;2.30;;
39656;SDS011;25337;51.478;7.510;2024-02-14T11:35:19;6.85;;;2.40;;
39656;SDS011;25337;51.478;7.510;2024-02-14T11:37:50;7.88;;;2.47;;
39656;SDS011;25337;51.478;7.510;2024-02-14T11:40:19;7.03;;;2.45;;
39656;SDS011;25337;51.478;7.510;2024-02-14T11:42:45;6.35;;;2.15;;
39656;SDS011;25337;51.478;7.510;2024-02-14T11:45:12;8.88;;;2.53;;
39656;SDS011;25337;51.478;7.510;2024-02-14T11:47:38;9.00;;;2.80;;
39656;SDS011;25337;51.478;7.510;2024-02-14T11:50:04;5.32;;;1.83;;
39656;SDS011;25337;51.478;7.510;2024-02-14T11:52:31;8.00;;;2.47;;
39656;SDS011;25337;51.478;7.510;2024-02-14T11:54:57;6.38;;;2.38;;
39656;SDS011;25337;51.478;7.510;2024-02-14T11:57:25;5.13;;;2.25;;
39656;SDS011;25337;51.478;7.510;2024-02-14T11:59:52;3.88;;;1.65;;
39656;SDS011;25337;51.478;7.510;2024-02-14T12:02:18;7.57;;;2.35;;
39656;SDS011;25337;51.478;7.510;2024-02-14T12:04:45;5.15;;;1.90;;
39656;SDS011;25337;51.478;7.510;2024-02-14T12:09:41;6.22;;;2.30;;
39656;SDS011;25337;51.478;7.510;2024-02-14T12:12:07;9.13;;;2.40;;
39656;SDS011;25337;51.478;7.510;2024-02-14T12:14:33;7.03;;;2.22;;
39656;SDS011;25337;51.478;7.510;2024-02-14T12:16:59;6.20;;;2.63;;
39656;SDS011;25337;51.478;7.510;2024-02-14T12:19:28;7.60;;;2.78;;
39656;SDS011;25337;51.478;7.510;2024-02-14T12:21:55;11.23;;;3.00;;
39656;SDS011;25337;51.478;7.510;2024-02-14T12:24:26;8.63;;;3.28;;
39656;SDS011;25337;51.478;7.510;2024-02-14T12:26:53;6.85;;;3.08;;
39656;SDS011;25337;51.478;7.510;2024-02-14T12:29:19;6.95;;;2.85;;
39656;SDS011;25337;51.478;7.510;2024-02-14T12:31:45;8.32;;;3.08;;
39656;SDS011;25337;51.478;7.510;2024-02-14T12:34:11;9.68;;;3.35;;
39656;SDS011;25337;51.478;7.510;2024-02-14T12:36:37;9.13;;;3.33;;
39656;SDS011;25337;51.478;7.510;2024-02-14T12:39:03;8.73;;;3.22;;
39656;SDS011;25337;51.478;7.510;2024-02-14T12:41:29;6.10;;;2.65;;
39656;SDS011;25337;51.478;7.510;2024-02-14T12:43:56;9.00;;;3.80;;
39656;SDS011;25337;51.478;7.510;2024-02-14T12:46:23;8.50;;;2.90;;
39656;SDS011;25337;51.478;7.510;2024-02-14T12:48:48;9.13;;;3.72;;
39656;SDS011;25337;51.478;7.510;2024-02-14T12:51:14;8.95;;;4.28;;
39656;SDS011;25337;51.478;7.510;2024-02-14T12:53:40;11.52;;;4.25;;
39656;SDS011;25337;51.478;7.510;2024-02-14T12:56:06;9.93;;;4.57;;
39656;SDS011;25337;51.478;7.510;2024-02-14T12:58:32;11.50;;;4.35;;
39656;SDS011;25337;51.478;7.510;2024-02-14T13:00:58;10.88;;;4.35;;
39656;SDS011;25337;51.478;7.510;2024-02-14T13:03:27;10.43;;;5.15;;
39656;SDS011;25337;51.478;7.510;2024-02-14T13:05:53;10.93;;;4.53;;
39656;SDS011;25337;51.478;7.510;2024-02-14T13:08:19;13.45;;;4.70;;
39656;SDS011;25337;51.478;7.510;2024-02-14T13:10:45;10.18;;;3.95;;
39656;SDS011;25337;51.478;7.510;2024-02-14T13:13:11;10.20;;;3.72;;
39656;SDS011;25337;51.478;7.510;2024-02-14T13:15:37;8.98;;;2.65;;
39656;SDS011;25337;51.478;7.510;2024-02-14T13:18:03;8.95;;;3.25;;
39656;SDS011;25337;51.478;7.510;2024-02-14T13:20:29;8.77;;;3.22;;
39656;SDS011;25337;51.478;7.510;2024-02-14T13:22:54;8.40;;;3.10;;
39656;SDS011;25337;51.478;7.510;2024-02-14T13:25:20;10.93;;;3.05;;
39656;SDS011;25337;51.478;7.510;2024-02-14T13:27:46;9.27;;;3.15;;
39656;SDS011;25337;51.478;7.510;2024-02-14T13:30:12;6.68;;;2.85;;
39656;SDS011;25337;51.478;7.510;2024-02-14T13:32:38;10.23;;;3.08;;
39656;SDS011;25337;51.478;7.510;2024-02-14T13:35:04;6.18;;;2.65;;
39656;SDS011;25337;51.478;7.510;2024-02-14T13:37:30;7.10;;;2.85;;
39656;SDS011;25337;51.478;7.510;2024-02-14T13:39:57;6.80;;;2.75;;
39656;SDS011;25337;51.478;7.510;2024-02-14T13:42:22;7.10;;;2.50;;
39656;SDS011;25337;51.478;7.510;2024-02-14T13:44:48;6.43;;;2.30;;
39656;SDS011;25337;51.478;7.510;2024-02-14T13:47:17;6.35;;;2.03;;
39656;SDS011;25337;51.478;7.510;2024-02-14T13:49:46;5.40;;;2.03;;
39656;SDS011;25337;51.478;7.510;2024-02-14T13:52:12;7.20;;;2.28;;
39656;SDS011;25337;51.478;7.510;2024-02-14T13:54:38;6.03;;;2.25;;
39656;SDS011;25337;51.478;7.510;2024-02-14T13:57:03;6.57;;;2.20;;
39656;SDS011;25337;51.478;7.510;2024-02-14T13:59:29;5.53;;;2.13;;
39656;SDS011;25337;51.478;7.510;2024-02-14T14:01:55;4.47;;;1.70;;
39656;SDS011;25337;51.478;7.510;2024-02-14T14:04:20;10.27;;;1.75;;
39656;SDS011;25337;51.478;7.510;2024-02-14T14:06:46;5.78;;;1.67;;
39656;SDS011;25337;51.478;7.510;2024-02-14T14:09:13;5.53;;;1.90;;
39656;SDS011;25337;51.478;7.510;2024-02-14T14:11:39;5.35;;;2.03;;
39656;SDS011;25337;51.478;7.510;2024-02-14T14:14:05;4.90;;;1.90;;
39656;SDS011;25337;51.478;7.510;2024-02-14T14:16:31;5.07;;;2.00;;
39656;SDS011;25337;51.478;7.510;2024-02-14T14:19:00;6.82;;;2.20;;
39656;SDS011;25337;51.478;7.510;2024-02-14T14:21:25;7.55;;;1.98;;
39656;SDS011;25337;51.478;7.510;2024-02-14T14:23:51;5.93;;;2.20;;
39656;SDS011;25337;51.478;7.510;2024-02-14T14:26:17;6.32;;;1.73;;
39656;SDS011;25337;51.478;7.510;2024-02-14T14:28:43;6.03;;;2.30;;
39656;SDS011;25337;51.478;7.510;2024-02-14T14:31:09;7.00;;;2.30;;
39656;SDS011;25337;51.478;7.510;2024-02-14T14:33:36;6.13;;;2.03;;
39656;SDS011;25337;51.478;7.510;2024-02-14T14:36:03;6.57;;;2.40;;
39656;SDS011;25337;51.478;7.510;2024-02-14T14:38:29;6.10;;;2.38;;
39656;SDS011;25337;51.478;7.510;2024-02-14T14:40:55;7.25;;;2.50;;